createdAt,value
2022-11-18T00:02:21.736Z,85060.34
2022-11-18T00:04:48.825Z,85057.59
2022-11-18T00:07:15.802Z,85080.00
2022-11-18T00:09:42.715Z,85062.66
2022-11-18T00:12:28.422Z,85075.59
2022-11-18T00:14:55.334Z,85075.69
2022-11-18T00:17:22.351Z,85052.53
2022-11-18T00:19:49.321Z,85047.31
2022-11-18T00:22:16.292Z,85033.53
2022-11-18T00:24:43.251Z,85064.84
2022-11-18T00:27:10.176Z,85081.41
2022-11-18T00:29:38.144Z,85071.59
2022-11-18T00:32:05.823Z,85061.94
2022-11-18T00:34:32.670Z,85048.63
2022-11-18T00:36:59.529Z,85070.38
2022-11-18T00:39:26.542Z,85061.34
2022-11-18T00:42:11.949Z,85082.50
2022-11-18T00:44:39.185Z,85038.97
2022-11-18T00:47:06.250Z,85055.09
2022-11-18T00:49:33.183Z,85041.56
2022-11-18T00:52:01.371Z,85051.19
2022-11-18T00:54:28.418Z,85086.50
2022-11-18T00:56:55.483Z,85032.00
2022-11-18T00:59:22.751Z,85027.94
2022-11-18T01:01:49.668Z,85074.28
2022-11-18T01:04:17.062Z,85057.84
2022-11-18T01:06:44.566Z,85070.66
2022-11-18T01:09:11.790Z,85072.66
2022-11-18T01:11:57.573Z,85068.63
2022-11-18T01:14:26.148Z,85060.44
2022-11-18T01:16:57.190Z,85048.13
2022-11-18T01:19:25.534Z,85060.56
2022-11-18T01:21:52.511Z,85059.69
2022-11-18T01:24:19.726Z,85074.59
2022-11-18T01:26:46.672Z,85080.97
2022-11-18T01:29:13.690Z,85070.66
2022-11-18T01:31:55.695Z,85064.47
2022-11-18T01:34:30.903Z,85029.28
2022-11-18T01:36:58.768Z,85070.75
2022-11-18T01:39:25.860Z,85066.00
2022-11-18T01:41:52.783Z,85028.06
2022-11-18T01:44:57.179Z,85067.41
2022-11-18T01:47:28.332Z,85053.91
2022-11-18T01:49:55.481Z,85066.25
2022-11-18T01:52:23.745Z,85062.13
2022-11-18T01:54:57.854Z,85037.78
2022-11-18T01:57:27.731Z,85065.06
2022-11-18T01:59:59.755Z,85033.16
2022-11-18T02:02:27.738Z,85039.25
2022-11-18T02:04:56.745Z,85033.81
2022-11-18T02:07:24.931Z,85054.09
2022-11-18T02:09:53.314Z,85054.16
2022-11-18T02:12:21.064Z,85046.09
2022-11-18T02:14:48.286Z,85046.09
2022-11-18T02:17:30.314Z,85048.28
2022-11-18T02:20:09.188Z,85056.47
2022-11-18T02:23:18.217Z,85055.09
2022-11-18T02:26:12.937Z,85053.75
2022-11-18T02:28:58.667Z,85058.69
2022-11-18T02:31:44.121Z,85056.75
2022-11-18T02:34:16.695Z,85060.84
2022-11-18T02:36:57.920Z,85003.84
2022-11-18T02:39:44.027Z,85010.59
2022-11-18T02:42:12.969Z,85052.75
2022-11-18T02:44:44.889Z,85048.63
2022-11-18T02:47:15.478Z,85021.69
2022-11-18T02:49:47.244Z,85062.19
2022-11-18T02:52:16.826Z,85030.13
2022-11-18T02:54:47.457Z,85051.72
2022-11-18T02:57:15.863Z,85016.69
2022-11-18T02:59:42.889Z,85040.31
2022-11-18T03:02:16.549Z,85043.53
2022-11-18T03:04:45.424Z,85043.56
2022-11-18T03:07:20.316Z,85013.84
2022-11-18T03:09:51.575Z,85026.72
2022-11-18T03:12:48.014Z,85023.09
2022-11-18T03:15:20.597Z,85033.31
2022-11-18T03:17:59.033Z,85025.88
2022-11-18T03:20:31.122Z,85034.34
2022-11-18T03:23:20.271Z,85024.28
2022-11-18T03:26:16.755Z,85031.44
2022-11-18T03:29:08.331Z,85040.00
2022-11-18T03:31:41.156Z,85007.41
2022-11-18T03:34:15.180Z,85032.34
2022-11-18T03:36:51.808Z,85006.34
2022-11-18T03:39:22.385Z,85012.75
2022-11-18T03:42:06.729Z,85023.63
2022-11-18T03:44:37.534Z,85022.00
2022-11-18T03:47:24.712Z,85009.81
2022-11-18T03:49:58.186Z,84989.06
2022-11-18T03:52:31.748Z,85016.22
2022-11-18T03:55:02.737Z,85034.38
2022-11-18T03:57:47.013Z,85030.41
2022-11-18T04:00:16.731Z,85033.22
2022-11-18T04:02:45.373Z,84940.91
2022-11-18T04:05:15.140Z,85042.75
2022-11-18T04:08:02.983Z,85038.06
2022-11-18T04:10:45.914Z,84995.44
2022-11-18T04:13:24.735Z,84988.63
2022-11-18T04:15:53.763Z,85047.56
2022-11-18T04:18:20.680Z,85008.66
2022-11-18T04:20:47.701Z,85046.88
2022-11-18T04:23:14.644Z,85009.59
2022-11-18T04:25:41.707Z,84971.88
2022-11-18T04:28:09.097Z,84988.97
2022-11-18T04:30:36.154Z,84999.56
2022-11-18T04:33:03.175Z,85034.06
2022-11-18T04:35:30.105Z,85021.47
2022-11-18T04:37:57.045Z,85020.16
2022-11-18T04:40:23.920Z,85026.16
2022-11-18T04:42:51.083Z,85015.91
2022-11-18T04:45:18.076Z,85024.22
2022-11-18T04:47:45.050Z,85033.56
2022-11-18T04:50:11.934Z,85046.81
2022-11-18T04:52:38.972Z,85040.41
2022-11-18T04:55:06.120Z,85041.03
2022-11-18T04:57:33.056Z,85044.44
2022-11-18T04:59:59.960Z,85003.63
2022-11-18T05:02:27.010Z,85049.81
2022-11-18T05:04:53.940Z,85005.00
2022-11-18T05:07:20.944Z,85045.03
2022-11-18T05:09:47.976Z,85043.59
2022-11-18T05:12:34.082Z,85024.09
2022-11-18T05:15:01.430Z,85043.47
2022-11-18T05:17:28.620Z,85030.22
2022-11-18T05:19:55.635Z,85018.66
2022-11-18T05:22:22.628Z,85014.63
2022-11-18T05:24:49.656Z,85014.59
2022-11-18T05:27:17.482Z,85039.94
2022-11-18T05:29:44.455Z,85008.59
2022-11-18T05:32:11.454Z,85016.78
2022-11-18T05:34:40.140Z,84986.16
2022-11-18T05:37:07.151Z,85017.34
2022-11-18T05:39:34.118Z,85015.22
2022-11-18T05:42:19.507Z,85010.53
2022-11-18T05:44:46.873Z,85000.34
2022-11-18T05:47:15.161Z,85036.19
2022-11-18T05:49:42.037Z,85001.50
2022-11-18T05:52:09.064Z,85032.25
2022-11-18T05:54:41.299Z,85045.94
2022-11-18T05:57:08.224Z,85047.31
2022-11-18T05:59:35.333Z,85059.06
2022-11-18T06:02:11.845Z,85035.13
2022-11-18T06:04:59.387Z,85030.91
2022-11-18T06:07:34.901Z,85039.25
2022-11-18T06:10:05.988Z,85012.56
2022-11-18T06:12:39.284Z,85052.84
2022-11-18T06:15:21.526Z,85029.56
2022-11-18T06:18:01.760Z,85034.50
2022-11-18T06:20:29.236Z,85032.56
2022-11-18T06:23:00.576Z,85006.97
2022-11-18T06:25:28.816Z,85055.09
2022-11-18T06:27:59.060Z,85048.81
2022-11-18T06:30:26.035Z,85058.81
2022-11-18T06:32:53.043Z,85024.91
2022-11-18T06:35:20.048Z,85062.09
2022-11-18T06:37:47.604Z,85036.38
2022-11-18T06:40:14.718Z,85036.50
2022-11-18T06:43:00.341Z,85054.84
2022-11-18T06:45:27.422Z,85071.03
2022-11-18T06:48:01.300Z,85059.72
2022-11-18T06:50:29.030Z,85038.34
2022-11-18T06:52:59.688Z,85042.50
2022-11-18T06:55:26.721Z,85072.41
2022-11-18T06:57:56.501Z,85055.50
2022-11-18T07:00:23.678Z,85067.13
2022-11-18T07:02:50.707Z,85056.34
2022-11-18T07:05:17.688Z,85053.91
2022-11-18T07:07:44.701Z,85034.63
2022-11-18T07:10:11.724Z,85035.72
2022-11-18T07:12:38.672Z,85038.31
2022-11-18T07:15:05.994Z,85041.50
2022-11-18T07:17:32.965Z,85054.44
2022-11-18T07:20:00.105Z,85051.59
2022-11-18T07:22:27.053Z,84980.59
2022-11-18T07:24:53.930Z,85016.09
2022-11-18T07:27:20.841Z,84986.47
2022-11-18T07:29:47.969Z,84991.81
2022-11-18T07:32:14.849Z,85037.13
2022-11-18T07:34:41.932Z,85023.84
2022-11-18T07:37:09.002Z,85025.13
2022-11-18T07:39:35.910Z,85013.97
2022-11-18T07:42:02.827Z,85008.25
2022-11-18T07:44:29.770Z,85007.81
2022-11-18T07:46:56.790Z,85019.91
2022-11-18T07:49:23.788Z,85038.09
2022-11-18T07:51:50.870Z,84989.25
2022-11-18T07:54:17.980Z,85042.34
2022-11-18T07:56:45.295Z,85038.53
2022-11-18T07:59:12.357Z,85031.19
2022-11-18T08:01:39.271Z,85007.72
2022-11-18T08:04:13.193Z,85040.00
2022-11-18T08:06:40.582Z,85048.25
2022-11-18T08:09:08.594Z,85023.31
2022-11-18T08:11:36.319Z,85030.03
2022-11-18T08:14:03.718Z,85044.91
2022-11-18T08:16:30.810Z,85036.38
2022-11-18T08:19:00.856Z,85057.47
2022-11-18T08:21:27.905Z,85040.03
2022-11-18T08:23:57.116Z,85036.63
2022-11-18T08:26:25.300Z,85045.25
2022-11-18T08:28:53.068Z,85036.31
2022-11-18T08:31:22.908Z,85033.22
2022-11-18T08:33:49.959Z,85050.13
2022-11-18T08:36:20.988Z,85023.88
2022-11-18T08:38:48.261Z,85031.56
2022-11-18T08:41:26.724Z,85036.22
2022-11-18T08:43:53.724Z,85016.47
2022-11-18T08:46:21.226Z,85016.28
2022-11-18T08:48:48.112Z,85027.44
2022-11-18T08:51:16.290Z,85024.28
2022-11-18T08:53:43.361Z,85043.84
2022-11-18T08:56:16.255Z,85035.03
2022-11-18T08:58:43.609Z,85040.34
2022-11-18T09:01:10.971Z,85045.38
2022-11-18T09:03:38.565Z,85054.09
2022-11-18T09:06:11.082Z,85051.19
2022-11-18T09:08:38.375Z,85015.63
2022-11-18T09:11:11.409Z,85059.53
2022-11-18T09:14:38.938Z,85019.00
2022-11-18T09:16:28.413Z,85032.44
2022-11-18T09:18:57.192Z,85014.94
2022-11-18T09:21:25.875Z,85007.25
2022-11-18T09:23:53.292Z,84992.03
2022-11-18T09:26:23.943Z,85025.56
2022-11-18T09:28:54.041Z,85031.97
2022-11-18T09:31:21.258Z,84987.16
2022-11-18T09:33:48.489Z,85017.69
2022-11-18T09:36:21.392Z,85006.94
2022-11-18T09:38:52.940Z,84989.88
2022-11-18T09:41:42.237Z,84993.47
2022-11-18T09:44:36.569Z,85017.53
2022-11-18T09:47:09.349Z,85000.31
2022-11-18T09:49:38.832Z,84970.25
2022-11-18T09:52:17.136Z,85005.44
2022-11-18T09:54:45.340Z,85003.06
2022-11-18T09:57:16.559Z,84987.16
2022-11-18T09:59:44.504Z,84965.06
2022-11-18T10:02:30.224Z,84967.53
2022-11-18T10:05:13.615Z,84962.19
2022-11-18T10:08:06.177Z,84960.84
2022-11-18T10:10:56.623Z,84966.94
2022-11-18T10:13:49.335Z,84971.31
2022-11-18T10:16:58.590Z,84957.97
2022-11-18T10:19:53.155Z,84942.44
2022-11-18T10:22:27.843Z,84937.19
2022-11-18T10:24:57.110Z,84951.97
2022-11-18T10:27:33.541Z,84886.63
2022-11-18T10:30:01.795Z,84957.59
2022-11-18T10:32:29.155Z,84935.25
2022-11-18T10:34:58.267Z,84931.13
2022-11-18T10:37:45.395Z,84956.91
2022-11-18T10:40:27.129Z,84942.09
2022-11-18T10:42:54.306Z,84943.69
2022-11-18T10:45:28.250Z,84922.28
2022-11-18T10:47:59.480Z,84946.41
2022-11-18T10:50:55.833Z,84946.19
2022-11-18T10:53:39.527Z,84921.69
2022-11-18T10:56:09.291Z,84927.00
2022-11-18T10:58:41.509Z,84928.69
2022-11-18T11:01:20.884Z,84934.94
2022-11-18T11:04:01.225Z,84941.94
2022-11-18T11:06:31.517Z,84961.59
2022-11-18T11:09:01.936Z,84943.88
2022-11-18T11:11:34.927Z,84950.66
2022-11-18T11:14:46.581Z,84959.44
2022-11-18T11:17:25.107Z,84940.78
2022-11-18T11:20:09.782Z,84956.28
2022-11-18T11:22:37.102Z,84967.09
2022-11-18T11:25:13.215Z,84941.84
2022-11-18T11:30:59.739Z,84951.47
2022-11-18T11:33:41.048Z,84952.22
2022-11-18T11:36:29.342Z,84942.22
2022-11-18T11:39:17.689Z,84963.22
2022-11-18T11:42:12.635Z,84961.00
2022-11-18T11:45:02.743Z,84949.53
2022-11-18T11:47:48.177Z,84942.16
2022-11-18T11:50:31.464Z,84933.06
2022-11-18T11:53:16.807Z,84954.75
2022-11-18T11:55:55.768Z,84938.22
2022-11-18T11:58:41.460Z,84934.00
2022-11-18T12:01:26.888Z,84940.91
2022-11-18T12:04:02.248Z,84929.03
2022-11-18T12:06:29.874Z,84929.03
2022-11-18T12:09:13.396Z,84891.38
2022-11-18T12:11:55.897Z,84919.81
2022-11-18T12:14:34.648Z,84913.31
2022-11-18T12:17:12.122Z,84911.72
2022-11-18T12:19:40.066Z,84936.03
2022-11-18T12:22:07.222Z,84943.50
2022-11-18T12:24:44.164Z,84931.03
2022-11-18T12:27:34.412Z,84927.09
2022-11-18T12:30:04.010Z,84935.38
2022-11-18T12:32:48.362Z,84927.31
2022-11-18T12:35:18.074Z,84926.44
2022-11-18T12:37:50.800Z,84921.63
2022-11-18T12:40:40.425Z,84931.94
2022-11-18T12:43:32.164Z,84933.59
2022-11-18T12:45:59.345Z,84887.09
2022-11-18T12:48:40.023Z,84925.88
2022-11-18T12:51:16.250Z,84936.16
2022-11-18T12:53:46.059Z,84915.88
2022-11-18T12:56:23.433Z,84925.72
2022-11-18T12:58:55.825Z,84930.63
2022-11-18T13:01:27.044Z,84883.25
2022-11-18T13:04:12.543Z,84914.50
2022-11-18T13:06:40.383Z,84889.19
2022-11-18T13:09:23.416Z,84901.28
2022-11-18T13:12:16.759Z,84897.22
2022-11-18T13:15:03.568Z,84897.56
2022-11-18T13:17:54.635Z,84892.00
2022-11-18T13:20:37.587Z,84899.06
2022-11-18T13:23:38.568Z,84893.88
2022-11-18T13:26:12.225Z,84866.31
2022-11-18T13:29:18.420Z,84877.03
2022-11-18T13:32:16.579Z,84898.34
2022-11-18T13:34:47.740Z,84910.66
2022-11-18T13:37:26.809Z,84867.38
2022-11-18T13:39:54.768Z,84892.28
2022-11-18T13:42:27.740Z,84903.84
2022-11-18T13:44:59.327Z,84875.69
2022-11-18T13:47:43.838Z,84879.91
2022-11-18T13:50:10.817Z,84896.00
2022-11-18T13:52:41.718Z,84852.84
2022-11-18T13:55:22.773Z,84914.00
2022-11-18T13:57:52.925Z,84928.47
2022-11-18T14:00:25.576Z,84922.66
2022-11-18T14:03:00.422Z,84903.16
2022-11-18T14:05:28.211Z,84891.25
2022-11-18T14:08:05.420Z,84887.59
2022-11-18T14:10:42.012Z,84910.00
2022-11-18T14:13:33.408Z,84914.25
2022-11-18T14:16:18.770Z,84898.28
2022-11-18T14:18:47.433Z,84872.63
2022-11-18T14:21:15.507Z,84896.84
2022-11-18T14:23:44.441Z,84887.84
2022-11-18T14:26:11.882Z,84885.03
2022-11-18T14:28:39.746Z,84874.91
2022-11-18T14:31:12.964Z,84897.28
2022-11-18T14:33:40.388Z,84835.13
2022-11-18T14:36:20.764Z,84881.38
2022-11-18T14:41:50.041Z,84846.75
2022-11-18T14:44:22.445Z,84898.34
2022-11-18T14:46:53.712Z,84831.47
2022-11-18T14:49:23.148Z,84902.03
2022-11-18T14:51:52.126Z,84857.94
2022-11-18T14:54:28.470Z,84880.00
2022-11-18T14:57:00.347Z,84870.44
2022-11-18T14:59:27.472Z,84865.25
2022-11-18T15:01:55.048Z,84839.84
2022-11-18T15:04:22.428Z,84813.78
2022-11-18T15:06:53.126Z,84843.50
2022-11-18T15:09:20.291Z,84874.16
2022-11-18T15:11:47.918Z,84844.06
2022-11-18T15:14:15.095Z,84855.28
2022-11-18T15:16:43.762Z,84809.81
2022-11-18T15:19:15.487Z,84822.47
2022-11-18T15:21:43.727Z,84845.41
2022-11-18T15:24:13.678Z,84861.38
2022-11-18T15:26:46.073Z,84867.94
2022-11-18T15:29:20.830Z,84872.25
2022-11-18T15:31:48.328Z,84877.25
2022-11-18T15:34:16.151Z,84849.47
2022-11-18T15:36:43.305Z,84864.69
2022-11-18T15:39:11.114Z,84860.56
2022-11-18T15:41:39.953Z,84840.75
2022-11-18T15:44:07.136Z,84858.28
2022-11-18T15:46:34.592Z,84849.50
2022-11-18T15:49:02.257Z,84868.53
2022-11-18T15:51:30.314Z,84889.88
2022-11-18T15:53:58.519Z,84792.78
2022-11-18T15:56:30.270Z,84876.56
2022-11-18T15:58:58.371Z,84887.09
2022-11-18T16:01:28.026Z,84902.38
2022-11-18T16:03:55.757Z,84877.69
2022-11-18T16:06:24.042Z,84809.06
2022-11-18T16:08:57.555Z,84898.59
2022-11-18T16:11:45.155Z,84902.91
2022-11-18T16:14:13.760Z,84910.09
2022-11-18T16:16:44.235Z,84899.25
2022-11-18T16:19:14.736Z,84904.94
2022-11-18T16:21:44.659Z,84865.09
2022-11-18T16:24:13.794Z,84858.91
2022-11-18T16:26:40.745Z,84865.16
2022-11-18T16:29:08.508Z,84869.44
2022-11-18T16:31:41.264Z,84867.53
2022-11-18T16:34:16.448Z,84862.72
2022-11-18T16:36:49.385Z,84870.69
2022-11-18T16:39:19.072Z,84886.75
2022-11-18T16:41:46.919Z,84854.28
2022-11-18T16:44:16.100Z,84869.81
2022-11-18T16:46:47.880Z,84880.97
2022-11-18T16:49:17.221Z,84895.19
2022-11-18T16:51:47.408Z,84884.09
2022-11-18T16:54:22.843Z,84885.69
2022-11-18T16:56:51.434Z,84886.53
2022-11-18T16:59:23.962Z,84910.31
2022-11-18T17:01:52.494Z,84871.97
2022-11-18T17:04:20.425Z,84899.03
2022-11-18T17:06:47.877Z,84901.75
2022-11-18T17:09:21.164Z,84912.22
2022-11-18T17:11:49.274Z,84838.56
2022-11-18T17:14:16.618Z,84897.31
2022-11-18T17:16:43.745Z,84879.72
2022-11-18T17:19:15.414Z,84833.38
2022-11-18T17:21:43.034Z,84860.19
2022-11-18T17:24:12.292Z,84867.50
2022-11-18T17:26:39.447Z,84891.00
2022-11-18T17:29:06.352Z,84892.31
2022-11-18T17:31:33.963Z,84861.84
2022-11-18T17:34:01.056Z,84843.56
2022-11-18T17:36:29.128Z,84885.13
2022-11-18T17:38:59.329Z,84902.31
2022-11-18T17:41:46.416Z,84840.13
2022-11-18T17:44:16.402Z,84880.94
2022-11-18T17:46:44.378Z,84872.56
2022-11-18T17:49:18.250Z,84855.06
2022-11-18T17:51:46.745Z,84866.16
2022-11-18T17:54:14.660Z,84843.56
2022-11-18T17:56:41.793Z,84886.59
2022-11-18T17:59:09.163Z,84880.25
2022-11-18T18:01:36.155Z,84891.53
2022-11-18T18:04:03.677Z,84899.66
2022-11-18T18:06:30.863Z,84876.09
2022-11-18T18:08:58.786Z,84870.59
2022-11-18T18:11:27.078Z,84869.00
2022-11-18T18:14:12.844Z,84905.56
2022-11-18T18:16:47.134Z,84852.66
2022-11-18T18:19:17.932Z,84892.25
2022-11-18T18:21:45.941Z,84870.94
2022-11-18T18:24:21.410Z,84876.53
2022-11-18T18:26:49.223Z,84876.69
2022-11-18T18:29:16.501Z,84859.28
2022-11-18T18:31:43.559Z,84855.91
2022-11-18T18:34:10.564Z,84873.84
2022-11-18T18:36:38.163Z,84875.72
2022-11-18T18:39:05.218Z,84874.41
2022-11-18T18:41:32.672Z,84867.72
2022-11-18T18:44:00.590Z,84900.75
2022-11-18T18:46:34.351Z,84896.41
2022-11-18T18:49:04.733Z,84900.50
2022-11-18T18:51:39.991Z,84879.16
2022-11-18T18:54:09.851Z,84909.88
2022-11-18T18:56:38.975Z,84906.63
2022-11-18T18:59:06.908Z,84889.00
2022-11-18T19:01:34.295Z,84929.69
2022-11-18T19:04:05.090Z,84930.22
2022-11-18T19:09:25.951Z,84899.72
2022-11-18T19:12:12.333Z,84937.34
2022-11-18T19:14:39.528Z,84908.19
2022-11-18T19:17:11.404Z,84895.88
2022-11-18T19:19:58.987Z,84912.72
2022-11-18T19:22:30.597Z,84874.19
2022-11-18T19:24:58.359Z,84881.03
2022-11-18T19:27:26.135Z,84897.56
2022-11-18T19:29:53.086Z,84942.47
2022-11-18T19:32:20.063Z,84923.38
2022-11-18T19:34:47.035Z,84903.53
2022-11-18T19:37:14.096Z,84918.38
2022-11-18T19:39:41.021Z,84939.78
2022-11-18T19:42:08.065Z,84900.59
2022-11-18T19:44:35.010Z,84944.75
2022-11-18T19:47:01.920Z,84948.09
2022-11-18T19:49:28.852Z,84918.13
2022-11-18T19:51:55.851Z,84937.78
2022-11-18T19:54:22.802Z,84928.59
2022-11-18T19:56:50.072Z,84935.25
2022-11-18T19:59:17.453Z,84933.50
2022-11-18T20:01:45.017Z,84926.81
2022-11-18T20:04:12.115Z,84931.25
2022-11-18T20:06:40.285Z,84888.25
2022-11-18T20:09:08.877Z,84932.47
2022-11-18T20:11:36.562Z,84924.28
2022-11-18T20:14:03.543Z,84911.94
2022-11-18T20:16:30.670Z,84920.47
2022-11-18T20:19:00.376Z,84884.44
2022-11-18T20:21:29.544Z,84945.09
2022-11-18T20:23:59.525Z,84978.34
2022-11-18T20:26:29.215Z,84973.63
2022-11-18T20:28:57.730Z,84952.69
2022-11-18T20:31:25.849Z,84995.94
2022-11-18T20:33:54.488Z,84986.28
2022-11-18T20:36:24.297Z,84965.44
2022-11-18T20:38:56.058Z,84942.41
2022-11-18T20:41:25.199Z,84951.44
2022-11-18T20:43:52.351Z,84944.50
2022-11-18T20:46:21.705Z,84969.38
2022-11-18T20:48:50.025Z,84959.63
2022-11-18T20:51:21.147Z,84964.84
2022-11-18T20:53:48.283Z,84939.19
2022-11-18T20:56:18.720Z,84977.91
2022-11-18T20:58:46.392Z,84946.03
2022-11-18T21:01:22.873Z,84997.47
2022-11-18T21:04:06.101Z,84967.63
2022-11-18T21:06:33.516Z,84959.75
2022-11-18T21:09:03.130Z,84959.69
2022-11-18T21:11:30.615Z,84983.84
2022-11-18T21:14:21.614Z,84957.53
2022-11-18T21:16:51.249Z,84958.47
2022-11-18T21:19:18.793Z,84971.53
2022-11-18T21:21:45.916Z,84958.66
2022-11-18T21:24:17.611Z,84984.13
2022-11-18T21:26:46.232Z,84998.88
2022-11-18T21:29:15.644Z,84994.00
2022-11-18T21:31:43.667Z,84967.03
2022-11-18T21:34:10.967Z,84974.19
2022-11-18T21:36:44.360Z,85019.47
2022-11-18T21:39:13.589Z,85005.09
2022-11-18T21:45:54.693Z,84992.31
2022-11-18T21:48:21.764Z,84971.75
2022-11-18T21:50:48.701Z,85006.97
2022-11-18T21:53:16.298Z,85014.56
2022-11-18T21:55:43.426Z,85006.06
2022-11-18T21:58:10.288Z,84995.06
2022-11-18T22:00:37.554Z,84981.94
2022-11-18T22:03:04.583Z,84971.75
2022-11-18T22:05:31.598Z,84990.09
2022-11-18T22:07:58.499Z,84980.31
2022-11-18T22:10:25.383Z,85015.00
2022-11-18T22:12:52.513Z,85004.28
2022-11-18T22:15:19.852Z,85015.09
2022-11-18T22:17:46.883Z,85017.94
2022-11-18T22:20:13.927Z,85007.09
2022-11-18T22:22:40.909Z,85040.03
2022-11-18T22:25:08.187Z,84996.69
2022-11-18T22:27:35.100Z,85057.16
2022-11-18T22:30:01.999Z,85015.06
2022-11-18T22:32:28.884Z,85029.50
2022-11-18T22:34:55.866Z,85013.59
2022-11-18T22:37:22.828Z,85024.00
2022-11-18T22:39:49.774Z,85007.47
2022-11-18T22:42:35.789Z,85001.25
2022-11-18T22:45:02.725Z,85019.41
2022-11-18T22:47:29.579Z,85030.50
2022-11-18T22:49:59.859Z,85043.97
2022-11-18T22:52:26.727Z,85029.25
2022-11-18T22:54:53.694Z,85024.84
2022-11-18T22:57:20.733Z,85035.44
2022-11-18T22:59:47.795Z,85036.38
2022-11-18T23:02:14.884Z,84999.22
2022-11-18T23:04:41.968Z,85036.50
2022-11-18T23:07:08.926Z,85038.34
2022-11-18T23:09:35.952Z,85051.34
2022-11-18T23:12:21.600Z,85055.31
2022-11-18T23:14:48.595Z,85051.34
2022-11-18T23:17:16.168Z,85058.88
2022-11-18T23:19:44.054Z,85040.56
2022-11-18T23:22:12.221Z,85068.63
2022-11-18T23:24:39.372Z,85044.34
2022-11-18T23:27:06.431Z,85040.88
2022-11-18T23:29:33.571Z,85055.16
2022-11-18T23:32:00.460Z,85049.38
2022-11-18T23:34:27.515Z,84999.63
2022-11-18T23:36:54.633Z,85072.63
2022-11-18T23:39:22.116Z,85044.22
2022-11-18T23:41:49.257Z,85057.78
2022-11-18T23:44:16.197Z,85091.91
2022-11-18T23:46:43.109Z,85076.31
2022-11-18T23:49:10.322Z,85074.28
2022-11-18T23:51:37.308Z,85050.97
2022-11-18T23:54:04.262Z,85020.91
2022-11-18T23:56:36.437Z,85031.19
2022-11-18T23:59:05.022Z,85057.97
